sensor_id;sensor_type;location;lat;lon;timestamp;P1;durP1;ratioP1;P2;durP2;ratioP2
4575;SDS011;2300;51.874;8.430;2023-04-21T00:02:12;153.27;;;141.93;;
4575;SDS011;2300;51.874;8.430;2023-04-21T00:04:41;165.80;;;153.57;;
4575;SDS011;2300;51.874;8.430;2023-04-21T00:07:09;157.30;;;145.67;;
4575;SDS011;2300;51.874;8.430;2023-04-21T00:09:35;155.13;;;143.50;;
4575;SDS011;2300;51.874;8.430;2023-04-21T00:12:03;154.10;;;142.70;;
4575;SDS011;2300;51.874;8.430;2023-04-21T00:14:30;119.70;;;109.63;;
4575;SDS011;2300;51.874;8.430;2023-04-21T00:16:56;132.73;;;121.93;;
4575;SDS011;2300;51.874;8.430;2023-04-21T00:19:24;121.67;;;111.47;;
4575;SDS011;2300;51.874;8.430;2023-04-21T00:21:50;122.13;;;112.17;;
4575;SDS011;2300;51.874;8.430;2023-04-21T00:24:22;129.20;;;118.43;;
4575;SDS011;2300;51.874;8.430;2023-04-21T00:26:49;121.80;;;111.70;;
4575;SDS011;2300;51.874;8.430;2023-04-21T00:29:17;125.37;;;115.30;;
4575;SDS011;2300;51.874;8.430;2023-04-21T00:31:43;120.27;;;110.40;;
4575;SDS011;2300;51.874;8.430;2023-04-21T00:34:09;141.77;;;130.87;;
4575;SDS011;2300;51.874;8.430;2023-04-21T00:36:36;145.17;;;134.20;;
4575;SDS011;2300;51.874;8.430;2023-04-21T00:39:02;117.97;;;108.27;;
4575;SDS011;2300;51.874;8.430;2023-04-21T00:41:29;117.20;;;107.17;;
4575;SDS011;2300;51.874;8.430;2023-04-21T00:43:59;123.83;;;113.70;;
4575;SDS011;2300;51.874;8.430;2023-04-21T00:46:26;119.30;;;109.57;;
4575;SDS011;2300;51.874;8.430;2023-04-21T00:48:53;124.03;;;114.17;;
4575;SDS011;2300;51.874;8.430;2023-04-21T00:51:19;117.33;;;107.60;;
4575;SDS011;2300;51.874;8.430;2023-04-21T00:53:46;120.17;;;110.20;;
4575;SDS011;2300;51.874;8.430;2023-04-21T00:56:13;118.47;;;109.00;;
4575;SDS011;2300;51.874;8.430;2023-04-21T00:58:39;109.47;;;100.03;;
4575;SDS011;2300;51.874;8.430;2023-04-21T01:01:07;125.13;;;114.63;;
4575;SDS011;2300;51.874;8.430;2023-04-21T01:03:35;123.10;;;113.50;;
4575;SDS011;2300;51.874;8.430;2023-04-21T01:06:01;123.47;;;113.87;;
4575;SDS011;2300;51.874;8.430;2023-04-21T01:08:28;111.03;;;101.47;;
4575;SDS011;2300;51.874;8.430;2023-04-21T01:10:55;99.87;;;91.37;;
4575;SDS011;2300;51.874;8.430;2023-04-21T01:13:22;107.77;;;98.80;;
4575;SDS011;2300;51.874;8.430;2023-04-21T01:15:48;125.80;;;115.97;;
4575;SDS011;2300;51.874;8.430;2023-04-21T01:18:15;161.37;;;149.70;;
4575;SDS011;2300;51.874;8.430;2023-04-21T01:20:43;126.30;;;116.70;;
4575;SDS011;2300;51.874;8.430;2023-04-21T01:23:11;102.43;;;93.57;;
4575;SDS011;2300;51.874;8.430;2023-04-21T01:25:37;105.60;;;97.30;;
4575;SDS011;2300;51.874;8.430;2023-04-21T01:28:04;107.53;;;99.03;;
4575;SDS011;2300;51.874;8.430;2023-04-21T01:30:30;116.70;;;107.30;;
4575;SDS011;2300;51.874;8.430;2023-04-21T01:32:57;98.53;;;90.17;;
4575;SDS011;2300;51.874;8.430;2023-04-21T01:35:24;131.43;;;122.07;;
4575;SDS011;2300;51.874;8.430;2023-04-21T01:37:51;106.03;;;98.00;;
4575;SDS011;2300;51.874;8.430;2023-04-21T01:40:19;104.30;;;96.03;;
4575;SDS011;2300;51.874;8.430;2023-04-21T01:42:45;106.83;;;98.67;;
4575;SDS011;2300;51.874;8.430;2023-04-21T01:45:12;93.97;;;86.13;;
4575;SDS011;2300;51.874;8.430;2023-04-21T01:47:38;109.27;;;100.33;;
4575;SDS011;2300;51.874;8.430;2023-04-21T01:50:05;99.87;;;91.50;;
4575;SDS011;2300;51.874;8.430;2023-04-21T01:52:32;116.97;;;107.97;;
4575;SDS011;2300;51.874;8.430;2023-04-21T01:54:59;99.80;;;91.53;;
4575;SDS011;2300;51.874;8.430;2023-04-21T01:57:28;112.87;;;104.13;;
4575;SDS011;2300;51.874;8.430;2023-04-21T01:59:54;103.73;;;95.47;;
4575;SDS011;2300;51.874;8.430;2023-04-21T02:02:21;111.50;;;102.80;;
4575;SDS011;2300;51.874;8.430;2023-04-21T02:04:47;108.33;;;99.63;;
4575;SDS011;2300;51.874;8.430;2023-04-21T02:07:14;106.03;;;97.80;;
4575;SDS011;2300;51.874;8.430;2023-04-21T02:09:40;109.67;;;101.47;;
4575;SDS011;2300;51.874;8.430;2023-04-21T02:12:07;113.43;;;104.87;;
4575;SDS011;2300;51.874;8.430;2023-04-21T02:14:36;127.03;;;117.83;;
4575;SDS011;2300;51.874;8.430;2023-04-21T02:17:03;118.40;;;109.80;;
4575;SDS011;2300;51.874;8.430;2023-04-21T02:19:29;98.43;;;90.20;;
4575;SDS011;2300;51.874;8.430;2023-04-21T02:21:56;116.43;;;107.87;;
4575;SDS011;2300;51.874;8.430;2023-04-21T02:24:22;98.17;;;90.63;;
4575;SDS011;2300;51.874;8.430;2023-04-21T02:26:49;109.23;;;101.10;;
4575;SDS011;2300;51.874;8.430;2023-04-21T02:29:15;112.83;;;104.43;;
4575;SDS011;2300;51.874;8.430;2023-04-21T02:31:43;99.10;;;91.27;;
4575;SDS011;2300;51.874;8.430;2023-04-21T02:34:10;99.70;;;91.90;;
4575;SDS011;2300;51.874;8.430;2023-04-21T02:36:36;122.77;;;113.97;;
4575;SDS011;2300;51.874;8.430;2023-04-21T02:39:02;113.30;;;105.07;;
4575;SDS011;2300;51.874;8.430;2023-04-21T02:41:29;115.83;;;107.33;;
4575;SDS011;2300;51.874;8.430;2023-04-21T02:43:55;121.33;;;112.40;;
4575;SDS011;2300;51.874;8.430;2023-04-21T02:46:22;119.63;;;111.03;;
4575;SDS011;2300;51.874;8.430;2023-04-21T02:48:49;109.77;;;101.20;;
4575;SDS011;2300;51.874;8.430;2023-04-21T02:51:16;102.73;;;94.80;;
4575;SDS011;2300;51.874;8.430;2023-04-21T02:53:42;100.60;;;92.60;;
4575;SDS011;2300;51.874;8.430;2023-04-21T02:56:08;107.03;;;99.07;;
4575;SDS011;2300;51.874;8.430;2023-04-21T02:58:35;99.80;;;92.20;;
4575;SDS011;2300;51.874;8.430;2023-04-21T03:01:02;114.90;;;106.60;;
4575;SDS011;2300;51.874;8.430;2023-04-21T03:03:30;109.40;;;101.13;;
4575;SDS011;2300;51.874;8.430;2023-04-21T03:05:58;111.67;;;103.67;;
4575;SDS011;2300;51.874;8.430;2023-04-21T03:08:26;119.10;;;110.87;;
4575;SDS011;2300;51.874;8.430;2023-04-21T03:10:52;95.63;;;88.50;;
4575;SDS011;2300;51.874;8.430;2023-04-21T03:13:19;98.40;;;91.03;;
4575;SDS011;2300;51.874;8.430;2023-04-21T03:15:45;100.30;;;93.10;;
4575;SDS011;2300;51.874;8.430;2023-04-21T03:18:12;108.20;;;100.63;;
4575;SDS011;2300;51.874;8.430;2023-04-21T03:20:38;105.80;;;98.20;;
4575;SDS011;2300;51.874;8.430;2023-04-21T03:23:06;112.57;;;104.43;;
4575;SDS011;2300;51.874;8.430;2023-04-21T03:25:32;103.70;;;95.83;;
4575;SDS011;2300;51.874;8.430;2023-04-21T03:27:59;111.83;;;103.97;;
4575;SDS011;2300;51.874;8.430;2023-04-21T03:30:25;120.40;;;112.33;;
4575;SDS011;2300;51.874;8.430;2023-04-21T03:32:52;100.93;;;93.40;;
4575;SDS011;2300;51.874;8.430;2023-04-21T03:35:19;120.13;;;111.53;;
4575;SDS011;2300;51.874;8.430;2023-04-21T03:37:46;109.20;;;101.30;;
4575;SDS011;2300;51.874;8.430;2023-04-21T03:40:15;97.87;;;90.93;;
4575;SDS011;2300;51.874;8.430;2023-04-21T03:42:41;108.67;;;101.13;;
4575;SDS011;2300;51.874;8.430;2023-04-21T03:45:08;111.53;;;103.17;;
4575;SDS011;2300;51.874;8.430;2023-04-21T03:47:35;126.00;;;117.43;;
4575;SDS011;2300;51.874;8.430;2023-04-21T03:50:02;121.43;;;112.67;;
4575;SDS011;2300;51.874;8.430;2023-04-21T03:52:29;104.90;;;96.77;;
4575;SDS011;2300;51.874;8.430;2023-04-21T03:54:55;114.67;;;106.27;;
4575;SDS011;2300;51.874;8.430;2023-04-21T03:57:23;114.03;;;106.03;;
4575;SDS011;2300;51.874;8.430;2023-04-21T03:59:49;102.23;;;94.40;;
4575;SDS011;2300;51.874;8.430;2023-04-21T04:02:15;109.23;;;101.23;;
4575;SDS011;2300;51.874;8.430;2023-04-21T04:04:42;117.17;;;108.73;;
4575;SDS011;2300;51.874;8.430;2023-04-21T04:07:08;119.77;;;111.17;;
4575;SDS011;2300;51.874;8.430;2023-04-21T04:09:35;125.13;;;116.43;;
4575;SDS011;2300;51.874;8.430;2023-04-21T04:12:01;103.03;;;94.73;;
4575;SDS011;2300;51.874;8.430;2023-04-21T04:14:29;112.40;;;104.27;;
4575;SDS011;2300;51.874;8.430;2023-04-21T04:16:56;115.33;;;107.03;;
4575;SDS011;2300;51.874;8.430;2023-04-21T04:19:28;122.60;;;113.70;;
4575;SDS011;2300;51.874;8.430;2023-04-21T04:21:56;121.87;;;113.27;;
4575;SDS011;2300;51.874;8.430;2023-04-21T04:24:23;104.63;;;96.30;;
4575;SDS011;2300;51.874;8.430;2023-04-21T04:26:51;123.30;;;114.43;;
4575;SDS011;2300;51.874;8.430;2023-04-21T04:29:18;106.93;;;98.43;;
4575;SDS011;2300;51.874;8.430;2023-04-21T04:31:47;107.70;;;99.37;;
4575;SDS011;2300;51.874;8.430;2023-04-21T04:34:14;118.40;;;109.40;;
4575;SDS011;2300;51.874;8.430;2023-04-21T04:36:41;117.00;;;108.17;;
4575;SDS011;2300;51.874;8.430;2023-04-21T04:39:08;101.87;;;93.17;;
4575;SDS011;2300;51.874;8.430;2023-04-21T04:41:34;102.20;;;94.07;;
4575;SDS011;2300;51.874;8.430;2023-04-21T04:44:01;114.00;;;105.17;;
4575;SDS011;2300;51.874;8.430;2023-04-21T04:46:29;107.63;;;99.30;;
4575;SDS011;2300;51.874;8.430;2023-04-21T04:48:57;108.00;;;99.30;;
4575;SDS011;2300;51.874;8.430;2023-04-21T04:51:23;103.30;;;95.27;;
4575;SDS011;2300;51.874;8.430;2023-04-21T04:53:49;98.13;;;90.33;;
4575;SDS011;2300;51.874;8.430;2023-04-21T04:56:16;98.70;;;90.93;;
4575;SDS011;2300;51.874;8.430;2023-04-21T04:58:42;105.10;;;97.60;;
4575;SDS011;2300;51.874;8.430;2023-04-21T05:01:10;110.37;;;102.47;;
4575;SDS011;2300;51.874;8.430;2023-04-21T05:03:37;94.00;;;86.60;;
4575;SDS011;2300;51.874;8.430;2023-04-21T05:06:05;113.73;;;105.77;;
4575;SDS011;2300;51.874;8.430;2023-04-21T05:08:32;96.07;;;88.50;;
4575;SDS011;2300;51.874;8.430;2023-04-21T05:10:58;94.57;;;87.27;;
4575;SDS011;2300;51.874;8.430;2023-04-21T05:13:25;109.60;;;102.03;;
4575;SDS011;2300;51.874;8.430;2023-04-21T05:15:55;113.03;;;105.20;;
4575;SDS011;2300;51.874;8.430;2023-04-21T05:18:22;120.70;;;112.73;;
4575;SDS011;2300;51.874;8.430;2023-04-21T05:20:48;102.60;;;95.47;;
4575;SDS011;2300;51.874;8.430;2023-04-21T05:23:16;118.10;;;110.30;;
4575;SDS011;2300;51.874;8.430;2023-04-21T05:25:44;136.97;;;128.70;;
4575;SDS011;2300;51.874;8.430;2023-04-21T05:28:13;148.53;;;139.40;;
4575;SDS011;2300;51.874;8.430;2023-04-21T05:30:39;135.13;;;126.82;;
4575;SDS011;2300;51.874;8.430;2023-04-21T05:33:06;153.73;;;144.73;;
4575;SDS011;2300;51.874;8.430;2023-04-21T05:35:33;166.83;;;156.87;;
4575;SDS011;2300;51.874;8.430;2023-04-21T05:37:59;138.03;;;129.73;;
4575;SDS011;2300;51.874;8.430;2023-04-21T05:40:27;166.23;;;156.47;;
4575;SDS011;2300;51.874;8.430;2023-04-21T05:42:54;155.10;;;145.77;;
4575;SDS011;2300;51.874;8.430;2023-04-21T05:45:20;143.10;;;134.77;;
4575;SDS011;2300;51.874;8.430;2023-04-21T05:47:46;142.38;;;134.30;;
4575;SDS011;2300;51.874;8.430;2023-04-21T05:50:13;167.50;;;158.05;;
4575;SDS011;2300;51.874;8.430;2023-04-21T05:52:40;170.77;;;161.25;;
4575;SDS011;2300;51.874;8.430;2023-04-21T05:55:07;185.00;;;174.40;;
4575;SDS011;2300;51.874;8.430;2023-04-21T05:57:34;192.65;;;182.45;;
4575;SDS011;2300;51.874;8.430;2023-04-21T06:00:01;203.73;;;192.77;;
4575;SDS011;2300;51.874;8.430;2023-04-21T06:02:28;195.63;;;185.30;;
4575;SDS011;2300;51.874;8.430;2023-04-21T06:04:54;193.02;;;182.43;;
4575;SDS011;2300;51.874;8.430;2023-04-21T06:07:21;194.43;;;183.50;;
4575;SDS011;2300;51.874;8.430;2023-04-21T06:09:48;185.68;;;175.48;;
4575;SDS011;2300;51.874;8.430;2023-04-21T06:12:16;193.38;;;182.70;;
4575;SDS011;2300;51.874;8.430;2023-04-21T06:14:43;190.95;;;180.52;;
4575;SDS011;2300;51.874;8.430;2023-04-21T06:17:10;202.38;;;191.57;;
4575;SDS011;2300;51.874;8.430;2023-04-21T06:19:40;189.27;;;178.73;;
4575;SDS011;2300;51.874;8.430;2023-04-21T06:22:07;182.55;;;172.40;;
4575;SDS011;2300;51.874;8.430;2023-04-21T06:24:33;165.68;;;156.43;;
4575;SDS011;2300;51.874;8.430;2023-04-21T06:27:00;193.48;;;183.20;;
4575;SDS011;2300;51.874;8.430;2023-04-21T06:29:27;210.27;;;199.48;;
4575;SDS011;2300;51.874;8.430;2023-04-21T06:31:54;212.65;;;202.00;;
4575;SDS011;2300;51.874;8.430;2023-04-21T06:34:21;211.38;;;200.43;;
4575;SDS011;2300;51.874;8.430;2023-04-21T06:36:47;245.40;;;233.10;;
4575;SDS011;2300;51.874;8.430;2023-04-21T06:39:14;256.25;;;243.82;;
4575;SDS011;2300;51.874;8.430;2023-04-21T06:41:40;278.85;;;264.98;;
4575;SDS011;2300;51.874;8.430;2023-04-21T06:44:07;233.05;;;221.50;;
4575;SDS011;2300;51.874;8.430;2023-04-21T06:46:37;230.27;;;219.00;;
4575;SDS011;2300;51.874;8.430;2023-04-21T06:49:05;223.18;;;212.13;;
4575;SDS011;2300;51.874;8.430;2023-04-21T06:51:32;244.50;;;232.50;;
4575;SDS011;2300;51.874;8.430;2023-04-21T06:53:58;217.38;;;206.32;;
4575;SDS011;2300;51.874;8.430;2023-04-21T06:56:25;259.73;;;245.70;;
4575;SDS011;2300;51.874;8.430;2023-04-21T06:58:52;274.48;;;260.65;;
4575;SDS011;2300;51.874;8.430;2023-04-21T07:01:18;203.32;;;192.75;;
4575;SDS011;2300;51.874;8.430;2023-04-21T07:03:45;227.15;;;215.90;;
4575;SDS011;2300;51.874;8.430;2023-04-21T07:06:13;217.05;;;206.18;;
4575;SDS011;2300;51.874;8.430;2023-04-21T07:08:39;273.48;;;259.63;;
4575;SDS011;2300;51.874;8.430;2023-04-21T07:11:06;208.85;;;198.27;;
4575;SDS011;2300;51.874;8.430;2023-04-21T07:13:32;261.35;;;248.15;;
4575;SDS011;2300;51.874;8.430;2023-04-21T07:15:59;232.65;;;220.95;;
4575;SDS011;2300;51.874;8.430;2023-04-21T07:18:25;230.40;;;218.90;;
4575;SDS011;2300;51.874;8.430;2023-04-21T07:20:52;268.45;;;255.27;;
4575;SDS011;2300;51.874;8.430;2023-04-21T07:23:20;372.45;;;352.98;;
4575;SDS011;2300;51.874;8.430;2023-04-21T07:25:46;226.60;;;215.68;;
4575;SDS011;2300;51.874;8.430;2023-04-21T07:28:12;246.95;;;234.63;;
4575;SDS011;2300;51.874;8.430;2023-04-21T07:30:40;309.77;;;293.90;;
4575;SDS011;2300;51.874;8.430;2023-04-21T07:33:06;229.30;;;217.90;;
4575;SDS011;2300;51.874;8.430;2023-04-21T07:35:33;206.55;;;195.80;;
4575;SDS011;2300;51.874;8.430;2023-04-21T07:37:59;202.73;;;192.57;;
4575;SDS011;2300;51.874;8.430;2023-04-21T07:40:27;212.07;;;201.43;;
4575;SDS011;2300;51.874;8.430;2023-04-21T07:42:54;204.25;;;193.95;;
4575;SDS011;2300;51.874;8.430;2023-04-21T07:45:21;214.15;;;203.07;;
4575;SDS011;2300;51.874;8.430;2023-04-21T07:47:47;211.50;;;200.93;;
4575;SDS011;2300;51.874;8.430;2023-04-21T07:50:13;229.27;;;217.57;;
4575;SDS011;2300;51.874;8.430;2023-04-21T07:52:40;238.43;;;226.35;;
4575;SDS011;2300;51.874;8.430;2023-04-21T07:55:06;205.93;;;195.57;;
4575;SDS011;2300;51.874;8.430;2023-04-21T07:57:34;326.67;;;309.10;;
4575;SDS011;2300;51.874;8.430;2023-04-21T08:00:02;205.48;;;195.10;;
4575;SDS011;2300;51.874;8.430;2023-04-21T08:02:30;196.35;;;186.48;;
4575;SDS011;2300;51.874;8.430;2023-04-21T08:04:56;231.02;;;219.35;;
4575;SDS011;2300;51.874;8.430;2023-04-21T08:07:23;216.02;;;205.02;;
4575;SDS011;2300;51.874;8.430;2023-04-21T08:09:49;222.07;;;210.82;;
4575;SDS011;2300;51.874;8.430;2023-04-21T08:12:15;197.60;;;187.25;;
4575;SDS011;2300;51.874;8.430;2023-04-21T08:14:43;247.20;;;234.65;;
4575;SDS011;2300;51.874;8.430;2023-04-21T08:17:10;201.73;;;191.18;;
4575;SDS011;2300;51.874;8.430;2023-04-21T08:19:36;213.60;;;202.93;;
4575;SDS011;2300;51.874;8.430;2023-04-21T08:22:02;198.98;;;188.80;;
4575;SDS011;2300;51.874;8.430;2023-04-21T08:24:29;233.57;;;221.48;;
4575;SDS011;2300;51.874;8.430;2023-04-21T08:26:56;266.45;;;252.20;;
4575;SDS011;2300;51.874;8.430;2023-04-21T08:29:22;186.93;;;177.55;;
4575;SDS011;2300;51.874;8.430;2023-04-21T08:31:50;158.98;;;150.45;;
4575;SDS011;2300;51.874;8.430;2023-04-21T08:34:16;193.38;;;183.40;;
4575;SDS011;2300;51.874;8.430;2023-04-21T08:36:43;188.45;;;178.90;;
4575;SDS011;2300;51.874;8.430;2023-04-21T08:39:11;169.95;;;160.80;;
4575;SDS011;2300;51.874;8.430;2023-04-21T08:41:38;164.68;;;156.30;;
4575;SDS011;2300;51.874;8.430;2023-04-21T08:44:05;166.00;;;157.80;;
4575;SDS011;2300;51.874;8.430;2023-04-21T08:46:32;213.55;;;202.10;;
4575;SDS011;2300;51.874;8.430;2023-04-21T08:49:01;148.38;;;140.75;;
4575;SDS011;2300;51.874;8.430;2023-04-21T08:51:28;143.30;;;135.50;;
4575;SDS011;2300;51.874;8.430;2023-04-21T08:53:55;157.38;;;148.98;;
4575;SDS011;2300;51.874;8.430;2023-04-21T08:56:23;150.07;;;142.15;;
4575;SDS011;2300;51.874;8.430;2023-04-21T08:58:50;170.90;;;161.82;;
4575;SDS011;2300;51.874;8.430;2023-04-21T09:01:16;171.45;;;162.65;;
4575;SDS011;2300;51.874;8.430;2023-04-21T09:03:43;177.77;;;168.85;;
4575;SDS011;2300;51.874;8.430;2023-04-21T09:06:11;175.73;;;166.27;;
4575;SDS011;2300;51.874;8.430;2023-04-21T09:08:38;202.10;;;192.18;;
4575;SDS011;2300;51.874;8.430;2023-04-21T09:11:08;203.77;;;193.55;;
4575;SDS011;2300;51.874;8.430;2023-04-21T09:13:39;248.50;;;235.57;;
4575;SDS011;2300;51.874;8.430;2023-04-21T09:16:13;284.60;;;269.75;;
4575;SDS011;2300;51.874;8.430;2023-04-21T09:18:41;203.27;;;193.23;;
4575;SDS011;2300;51.874;8.430;2023-04-21T09:21:09;232.35;;;221.05;;
4575;SDS011;2300;51.874;8.430;2023-04-21T09:23:39;234.23;;;222.88;;
4575;SDS011;2300;51.874;8.430;2023-04-21T09:26:07;199.82;;;190.05;;
4575;SDS011;2300;51.874;8.430;2023-04-21T09:28:33;219.32;;;208.50;;
4575;SDS011;2300;51.874;8.430;2023-04-21T09:31:00;297.38;;;282.77;;
4575;SDS011;2300;51.874;8.430;2023-04-21T09:33:26;244.93;;;232.18;;
4575;SDS011;2300;51.874;8.430;2023-04-21T09:35:53;321.70;;;305.35;;
4575;SDS011;2300;51.874;8.430;2023-04-21T09:38:21;184.55;;;175.32;;
4575;SDS011;2300;51.874;8.430;2023-04-21T09:40:55;193.40;;;183.82;;
4575;SDS011;2300;51.874;8.430;2023-04-21T09:43:22;215.05;;;204.52;;
4575;SDS011;2300;51.874;8.430;2023-04-21T09:45:48;174.98;;;166.18;;
4575;SDS011;2300;51.874;8.430;2023-04-21T09:48:16;192.73;;;183.38;;
4575;SDS011;2300;51.874;8.430;2023-04-21T09:50:43;174.57;;;165.60;;
4575;SDS011;2300;51.874;8.430;2023-04-21T09:53:13;207.55;;;197.18;;
4575;SDS011;2300;51.874;8.430;2023-04-21T09:55:42;197.35;;;187.93;;
4575;SDS011;2300;51.874;8.430;2023-04-21T09:58:12;209.10;;;198.82;;
4575;SDS011;2300;51.874;8.430;2023-04-21T10:00:42;183.02;;;174.02;;
4575;SDS011;2300;51.874;8.430;2023-04-21T10:03:09;201.82;;;191.82;;
4575;SDS011;2300;51.874;8.430;2023-04-21T10:05:37;192.07;;;182.68;;
4575;SDS011;2300;51.874;8.430;2023-04-21T10:08:04;218.15;;;207.70;;
4575;SDS011;2300;51.874;8.430;2023-04-21T10:10:31;256.05;;;243.23;;
4575;SDS011;2300;51.874;8.430;2023-04-21T10:13:01;194.18;;;184.90;;
4575;SDS011;2300;51.874;8.430;2023-04-21T10:15:29;251.45;;;238.15;;
4575;SDS011;2300;51.874;8.430;2023-04-21T10:18:12;181.98;;;173.02;;
4575;SDS011;2300;51.874;8.430;2023-04-21T10:20:51;190.38;;;181.20;;
4575;SDS011;2300;51.874;8.430;2023-04-21T10:23:28;190.38;;;180.90;;
4575;SDS011;2300;51.874;8.430;2023-04-21T10:26:02;239.23;;;227.32;;
4575;SDS011;2300;51.874;8.430;2023-04-21T10:28:45;195.70;;;185.95;;
4575;SDS011;2300;51.874;8.430;2023-04-21T10:31:27;191.68;;;182.30;;
4575;SDS011;2300;51.874;8.430;2023-04-21T10:34:11;186.57;;;177.50;;
4575;SDS011;2300;51.874;8.430;2023-04-21T10:36:48;180.00;;;170.95;;
4575;SDS011;2300;51.874;8.430;2023-04-21T10:39:32;165.65;;;157.60;;
4575;SDS011;2300;51.874;8.430;2023-04-21T10:44:59;185.13;;;176.40;;
4575;SDS011;2300;51.874;8.430;2023-04-21T10:47:28;245.93;;;233.77;;
4575;SDS011;2300;51.874;8.430;2023-04-21T10:49:58;372.23;;;350.45;;
4575;SDS011;2300;51.874;8.430;2023-04-21T10:52:31;229.02;;;217.48;;
4575;SDS011;2300;51.874;8.430;2023-04-21T10:55:05;168.00;;;159.80;;
4575;SDS011;2300;51.874;8.430;2023-04-21T10:57:34;280.25;;;263.88;;
4575;SDS011;2300;51.874;8.430;2023-04-21T11:00:03;168.07;;;159.73;;
4575;SDS011;2300;51.874;8.430;2023-04-21T11:02:31;140.38;;;133.40;;
4575;SDS011;2300;51.874;8.430;2023-04-21T11:04:59;215.20;;;204.50;;
4575;SDS011;2300;51.874;8.430;2023-04-21T11:07:26;201.13;;;191.02;;
4575;SDS011;2300;51.874;8.430;2023-04-21T11:09:56;135.50;;;128.70;;
4575;SDS011;2300;51.874;8.430;2023-04-21T11:12:26;162.05;;;154.15;;
4575;SDS011;2300;51.874;8.430;2023-04-21T11:14:54;134.98;;;128.20;;
4575;SDS011;2300;51.874;8.430;2023-04-21T11:17:23;203.63;;;193.02;;
4575;SDS011;2300;51.874;8.430;2023-04-21T11:19:51;138.35;;;131.55;;
4575;SDS011;2300;51.874;8.430;2023-04-21T11:22:19;254.95;;;241.68;;
4575;SDS011;2300;51.874;8.430;2023-04-21T11:24:47;175.88;;;167.40;;
4575;SDS011;2300;51.874;8.430;2023-04-21T11:27:14;129.10;;;122.82;;
4575;SDS011;2300;51.874;8.430;2023-04-21T11:29:43;160.20;;;151.25;;
4575;SDS011;2300;51.874;8.430;2023-04-21T11:32:10;90.78;;;86.07;;
4575;SDS011;2300;51.874;8.430;2023-04-21T11:34:39;252.10;;;238.30;;
4575;SDS011;2300;51.874;8.430;2023-04-21T11:37:06;109.15;;;103.60;;
4575;SDS011;2300;51.874;8.430;2023-04-21T11:39:33;150.60;;;142.80;;
4575;SDS011;2300;51.874;8.430;2023-04-21T11:42:00;108.97;;;103.70;;
4575;SDS011;2300;51.874;8.430;2023-04-21T11:44:31;138.13;;;130.70;;
4575;SDS011;2300;51.874;8.430;2023-04-21T11:46:59;189.10;;;178.05;;
4575;SDS011;2300;51.874;8.430;2023-04-21T11:49:26;148.18;;;140.50;;
4575;SDS011;2300;51.874;8.430;2023-04-21T11:51:55;122.25;;;115.03;;
4575;SDS011;2300;51.874;8.430;2023-04-21T11:54:22;89.68;;;83.88;;
4575;SDS011;2300;51.874;8.430;2023-04-21T11:56:49;102.80;;;96.15;;
4575;SDS011;2300;51.874;8.430;2023-04-21T11:59:16;106.60;;;100.75;;
4575;SDS011;2300;51.874;8.430;2023-04-21T12:01:47;124.20;;;117.97;;
4575;SDS011;2300;51.874;8.430;2023-04-21T12:04:16;111.63;;;105.63;;
4575;SDS011;2300;51.874;8.430;2023-04-21T12:06:43;93.35;;;88.60;;
4575;SDS011;2300;51.874;8.430;2023-04-21T12:09:16;110.50;;;104.55;;
4575;SDS011;2300;51.874;8.430;2023-04-21T12:11:46;105.55;;;100.38;;
4575;SDS011;2300;51.874;8.430;2023-04-21T12:14:14;102.38;;;97.05;;
4575;SDS011;2300;51.874;8.430;2023-04-21T12:16:41;271.35;;;256.15;;
4575;SDS011;2300;51.874;8.430;2023-04-21T12:19:07;132.23;;;125.45;;
4575;SDS011;2300;51.874;8.430;2023-04-21T12:21:36;89.50;;;85.07;;
4575;SDS011;2300;51.874;8.430;2023-04-21T12:24:03;103.68;;;98.50;;
4575;SDS011;2300;51.874;8.430;2023-04-21T12:26:31;142.88;;;135.07;;
4575;SDS011;2300;51.874;8.430;2023-04-21T12:28:58;102.05;;;97.05;;
4575;SDS011;2300;51.874;8.430;2023-04-21T12:31:25;94.78;;;90.22;;
4575;SDS011;2300;51.874;8.430;2023-04-21T12:33:51;125.63;;;119.28;;
4575;SDS011;2300;51.874;8.430;2023-04-21T12:36:18;104.50;;;98.75;;
4575;SDS011;2300;51.874;8.430;2023-04-21T12:38:44;123.97;;;117.75;;
4575;SDS011;2300;51.874;8.430;2023-04-21T12:41:11;84.40;;;80.07;;
4575;SDS011;2300;51.874;8.430;2023-04-21T12:43:39;131.57;;;125.43;;
4575;SDS011;2300;51.874;8.430;2023-04-21T12:46:05;122.40;;;116.50;;
4575;SDS011;2300;51.874;8.430;2023-04-21T12:48:31;105.88;;;100.68;;
4575;SDS011;2300;51.874;8.430;2023-04-21T12:50:58;88.00;;;83.75;;
4575;SDS011;2300;51.874;8.430;2023-04-21T12:53:25;132.93;;;125.97;;
4575;SDS011;2300;51.874;8.430;2023-04-21T12:55:51;102.47;;;97.45;;
4575;SDS011;2300;51.874;8.430;2023-04-21T12:58:18;125.97;;;119.60;;
4575;SDS011;2300;51.874;8.430;2023-04-21T13:00:45;144.95;;;137.60;;
4575;SDS011;2300;51.874;8.430;2023-04-21T13:03:12;101.70;;;96.75;;
4575;SDS011;2300;51.874;8.430;2023-04-21T13:05:38;96.95;;;92.15;;
4575;SDS011;2300;51.874;8.430;2023-04-21T13:08:05;139.95;;;133.10;;
4575;SDS011;2300;51.874;8.430;2023-04-21T13:10:31;117.57;;;111.70;;
4575;SDS011;2300;51.874;8.430;2023-04-21T13:12:57;84.82;;;80.75;;
4575;SDS011;2300;51.874;8.430;2023-04-21T13:15:24;148.25;;;141.18;;
4575;SDS011;2300;51.874;8.430;2023-04-21T13:17:52;146.82;;;139.55;;
4575;SDS011;2300;51.874;8.430;2023-04-21T13:20:18;109.68;;;104.25;;
4575;SDS011;2300;51.874;8.430;2023-04-21T13:22:45;111.45;;;105.93;;
4575;SDS011;2300;51.874;8.430;2023-04-21T13:25:11;99.18;;;94.30;;
4575;SDS011;2300;51.874;8.430;2023-04-21T13:27:38;116.68;;;111.07;;
4575;SDS011;2300;51.874;8.430;2023-04-21T13:30:06;101.60;;;96.80;;
4575;SDS011;2300;51.874;8.430;2023-04-21T13:32:34;164.98;;;156.73;;
4575;SDS011;2300;51.874;8.430;2023-04-21T13:35:02;148.63;;;141.02;;
4575;SDS011;2300;51.874;8.430;2023-04-21T13:37:32;120.25;;;113.90;;
4575;SDS011;2300;51.874;8.430;2023-04-21T13:39:59;103.90;;;98.80;;
4575;SDS011;2300;51.874;8.430;2023-04-21T13:42:25;170.68;;;162.60;;
4575;SDS011;2300;51.874;8.430;2023-04-21T13:44:52;181.85;;;172.82;;
4575;SDS011;2300;51.874;8.430;2023-04-21T13:47:18;198.95;;;189.45;;
4575;SDS011;2300;51.874;8.430;2023-04-21T13:49:44;100.82;;;95.93;;
4575;SDS011;2300;51.874;8.430;2023-04-21T13:52:13;143.77;;;136.98;;
4575;SDS011;2300;51.874;8.430;2023-04-21T13:54:40;155.25;;;147.77;;
4575;SDS011;2300;51.874;8.430;2023-04-21T13:57:07;105.22;;;100.25;;
4575;SDS011;2300;51.874;8.430;2023-04-21T13:59:33;107.15;;;101.90;;
4575;SDS011;2300;51.874;8.430;2023-04-21T14:02:00;105.07;;;99.95;;
4575;SDS011;2300;51.874;8.430;2023-04-21T14:04:27;100.50;;;95.28;;
4575;SDS011;2300;51.874;8.430;2023-04-21T14:06:54;105.20;;;100.03;;
4575;SDS011;2300;51.874;8.430;2023-04-21T14:09:21;201.50;;;190.52;;
4575;SDS011;2300;51.874;8.430;2023-04-21T14:11:48;97.75;;;92.97;;
4575;SDS011;2300;51.874;8.430;2023-04-21T14:14:15;96.35;;;91.72;;
4575;SDS011;2300;51.874;8.430;2023-04-21T14:16:41;101.57;;;96.53;;
4575;SDS011;2300;51.874;8.430;2023-04-21T14:19:08;176.65;;;167.65;;
4575;SDS011;2300;51.874;8.430;2023-04-21T14:21:43;109.05;;;103.75;;
4575;SDS011;2300;51.874;8.430;2023-04-21T14:24:09;222.35;;;208.45;;
4575;SDS011;2300;51.874;8.430;2023-04-21T14:26:35;135.63;;;129.00;;
4575;SDS011;2300;51.874;8.430;2023-04-21T14:29:02;101.05;;;96.35;;
4575;SDS011;2300;51.874;8.430;2023-04-21T14:31:28;97.03;;;92.28;;